Time;durP1;ratioP1;P1;durP2;ratioP2;P2;SDS_P1;SDS_P2;PMS_P1;PMS_P2;Temp;Humidity;BMP_temperature;BMP_pressure;BME280_temperature;BME280_humidity;BME280_pressure;Samples;Min_cycle;Max_cycle;Signal;HPM_P1;HPM_P2
2024/01/03 00:03:13;;;;;;;1.20;1.20;;;;;;;14.52;57.96;97006.69;7085703;27;20196;-87
2024/01/03 00:06:35;;;;;;;1.50;1.40;;;;;;;14.52;58.08;97050.06;7080916;27;20239;-84
2024/01/03 00:10:00;;;;;;;1.30;1.20;;;;;;;14.53;57.60;97008.34;7064459;27;20294;-84
2024/01/03 00:13:48;;;;;;;1.40;1.30;;;;;;;14.60;57.33;97044.13;7080220;27;20629;-83
2024/01/03 00:17:11;;;;;;;1.20;1.20;;;;;;;14.63;57.01;97042.75;7079850;27;20273;-84
2024/01/03 00:20:34;;;;;;;1.40;1.37;;;;;;;14.04;58.46;97052.50;7080100;27;20262;-83
2024/01/03 00:23:57;;;;;;;1.70;1.40;;;;;;;14.42;56.97;97036.53;7079011;27;20201;-83
2024/01/03 00:27:20;;;;;;;1.33;1.30;;;;;;;14.58;56.73;97049.00;7077529;28;20283;-83
2024/01/03 00:30:44;;;;;;;1.60;1.50;;;;;;;14.42;56.42;97046.56;7062290;27;20228;-83
2024/01/03 00:34:07;;;;;;;1.83;1.50;;;;;;;14.58;55.78;97038.13;7062477;28;20780;-83
2024/01/03 00:37:30;;;;;;;1.40;1.30;;;;;;;14.29;56.25;97045.19;7061395;27;20289;-84
2024/01/03 00:40:55;;;;;;;1.50;1.40;;;;;;;14.38;55.43;97054.44;7062545;28;20557;-83
2024/01/03 00:44:18;;;;;;;1.73;1.50;;;;;;;14.40;55.15;97035.97;7057612;28;20213;-84
2024/01/03 00:47:40;;;;;;;1.90;1.50;;;;;;;14.33;54.11;97031.94;7050422;28;20216;-83
2024/01/03 00:51:02;;;;;;;2.17;1.70;;;;;;;14.52;53.59;97035.72;7053091;28;20230;-83
2024/01/03 00:54:25;;;;;;;2.23;1.60;;;;;;;14.84;51.83;97057.91;7033774;28;20212;-83
2024/01/03 00:57:46;;;;;;;2.10;1.60;;;;;;;14.56;52.92;97066.63;7033635;28;20237;-84
2024/01/03 01:01:09;;;;;;;2.57;1.80;;;;;;;14.61;52.39;97064.72;7034623;28;20338;-83
2024/01/03 01:04:32;;;;;;;2.87;1.93;;;;;;;14.86;51.69;97072.03;7033786;28;20294;-84
2024/01/03 01:07:53;;;;;;;2.00;1.80;;;;;;;14.64;51.42;97087.78;7035772;28;20687;-84
2024/01/03 01:11:15;;;;;;;3.70;1.70;;;;;;;14.38;51.36;97062.56;7035788;28;20258;-83
2024/01/03 01:14:36;;;;;;;3.17;1.50;;;;;;;14.89;50.71;97088.56;7034076;28;20252;-83
2024/01/03 01:17:59;;;;;;;2.63;1.70;;;;;;;14.60;50.87;97087.50;7032074;28;20293;-83
2024/01/03 01:21:20;;;;;;;3.67;1.50;;;;;;;14.47;51.49;97100.78;7033421;28;20355;-83
2024/01/03 01:24:42;;;;;;;1.80;1.60;;;;;;;13.97;52.98;97084.44;7036308;28;20211;-84
2024/01/03 01:28:04;;;;;;;1.57;1.47;;;;;;;14.32;52.33;97087.22;7040731;28;20272;-84
2024/01/03 01:31:25;;;;;;;1.30;1.30;;;;;;;14.21;52.55;97094.53;7060059;28;20268;-84
2024/01/03 01:34:51;;;;;;;2.03;1.33;;;;;;;14.24;52.68;97099.44;7062066;28;20295;-83
2024/01/03 01:38:12;;;;;;;2.30;1.80;;;;;;;14.02;52.15;97016.69;7060633;28;20711;-83
2024/01/03 01:41:34;;;;;;;2.10;1.60;;;;;;;14.33;52.96;97110.56;7060398;28;20282;-84
2024/01/03 01:44:55;;;;;;;1.60;1.57;;;;;;;14.18;54.19;97095.06;7050722;28;20278;-83
2024/01/03 01:48:17;;;;;;;2.57;1.80;;;;;;;14.39;52.40;97033.56;7033346;28;20234;-83
2024/01/03 01:51:40;;;;;;;2.60;1.73;;;;;;;14.28;54.21;97100.50;7050876;28;20229;-83
2024/01/03 01:55:02;;;;;;;3.33;2.00;;;;;;;14.15;54.38;97070.41;7061176;28;20237;-84
2024/01/03 01:58:24;;;;;;;2.27;1.77;;;;;;;14.30;54.59;97089.41;7060734;28;20731;-83
2024/01/03 02:01:45;;;;;;;2.30;1.63;;;;;;;14.57;54.30;97108.94;7061697;28;20288;-83
2024/01/03 02:05:08;;;;;;;4.13;1.73;;;;;;;14.29;54.98;97117.59;7061938;28;20237;-84
2024/01/03 02:08:31;;;;;;;1.50;1.40;;;;;;;14.04;55.88;97107.47;7051670;27;20350;-83
2024/01/03 02:11:52;;;;;;;2.10;1.90;;;;;;;14.25;55.34;97105.66;7046636;28;20561;-83
2024/01/03 02:15:14;;;;;;;1.80;1.70;;;;;;;13.84;56.21;97107.44;7060785;28;20346;-82
2024/01/03 02:18:36;;;;;;;1.93;1.67;;;;;;;14.31;55.36;97107.28;7059673;27;20229;-83
2024/01/03 02:22:00;;;;;;;1.67;1.57;;;;;;;14.04;55.35;97106.69;7060402;28;20224;-83
2024/01/03 02:25:21;;;;;;;1.53;1.33;;;;;;;13.96;55.66;97099.06;7060774;28;20212;-83
2024/01/03 02:28:43;;;;;;;1.60;1.50;;;;;;;14.14;55.11;97110.22;7045234;28;20252;-83
2024/01/03 02:32:04;;;;;;;1.20;1.20;;;;;;;14.20;54.41;97106.47;7060377;28;20228;-83
2024/01/03 02:35:26;;;;;;;1.57;1.47;;;;;;;14.11;54.52;97113.44;7060406;28;20352;-83
2024/01/03 02:38:51;;;;;;;1.23;1.23;;;;;;;13.75;54.63;97103.59;7057551;28;20687;-83
2024/01/03 02:42:13;;;;;;;1.50;1.40;;;;;;;13.98;54.56;97126.72;7031462;28;20697;-83
2024/01/03 02:45:35;;;;;;;1.47;1.40;;;;;;;13.95;53.75;97095.56;7033901;28;20623;-85
2024/01/03 02:48:56;;;;;;;1.20;1.20;;;;;;;14.03;54.07;97124.00;7041642;28;20233;-83
2024/01/03 02:52:18;;;;;;;1.20;1.20;;;;;;;13.75;55.04;97106.31;7050554;28;20356;-83
2024/01/03 02:55:41;;;;;;;1.17;1.17;;;;;;;14.04;54.84;97123.75;7059259;28;20204;-83
2024/01/03 02:59:02;;;;;;;1.30;1.30;;;;;;;13.63;54.73;97059.69;7058474;28;20311;-84
2024/01/03 03:02:26;;;;;;;2.33;1.53;;;;;;;14.19;55.19;97126.53;7060228;28;20286;-84
2024/01/03 03:05:48;;;;;;;1.37;1.30;;;;;;;14.05;55.99;97127.28;7060485;28;20342;-85
2024/01/03 03:09:09;;;;;;;1.40;1.30;;;;;;;13.65;57.21;97129.84;7057348;28;20228;-84
2024/01/03 03:12:32;;;;;;;1.47;1.37;;;;;;;13.72;57.48;97131.25;7044858;28;20210;-82
2024/01/03 03:15:54;;;;;;;1.90;1.50;;;;;;;13.93;57.05;97121.28;7056968;28;20585;-83
2024/01/03 03:19:16;;;;;;;1.37;1.37;;;;;;;14.37;56.05;97122.47;7058681;28;20312;-82
2024/01/03 03:22:38;;;;;;;1.53;1.43;;;;;;;14.11;56.65;97129.72;7058523;28;20300;-83
2024/01/03 03:26:01;;;;;;;2.20;2.10;;;;;;;14.07;56.75;97128.63;7031764;28;20209;-83
2024/01/03 03:29:27;;;;;;;1.37;1.33;;;;;;;13.84;57.12;97064.09;7031127;28;20257;-82
2024/01/03 03:32:48;;;;;;;1.97;1.40;;;;;;;13.99;57.75;97102.03;7043737;28;20209;-83
2024/01/03 03:36:13;;;;;;;1.27;1.27;;;;;;;13.82;58.34;97103.38;7059798;28;20338;-83
2024/01/03 03:39:35;;;;;;;1.43;1.40;;;;;;;13.90;58.13;97110.97;7059220;28;20234;-83
2024/01/03 03:42:56;;;;;;;1.73;1.50;;;;;;;13.49;58.97;97082.13;7060389;28;20663;-85
2024/01/03 03:46:19;;;;;;;1.77;1.67;;;;;;;14.11;57.80;97123.50;7060687;28;20220;-83
2024/01/03 03:49:40;;;;;;;1.70;1.60;;;;;;;14.03;57.86;97110.44;7050758;28;20262;-83
2024/01/03 03:53:02;;;;;;;1.70;1.60;;;;;;;13.96;58.24;97128.88;7035716;28;20247;-83
2024/01/03 03:56:24;;;;;;;1.70;1.60;;;;;;;14.49;56.37;97110.28;7057703;28;20587;-83
2024/01/03 03:59:45;;;;;;;1.60;1.50;;;;;;;14.10;57.31;97106.41;7058685;28;20312;-83
2024/01/03 04:03:08;;;;;;;1.50;1.50;;;;;;;14.20;57.35;97092.09;7059695;28;20719;-83
2024/01/03 04:06:30;;;;;;;1.63;1.53;;;;;;;14.14;57.24;97098.56;7064087;28;20270;-82
2024/01/03 04:09:51;;;;;;;2.27;2.00;;;;;;;14.12;57.35;97122.41;7046418;28;20310;-83
2024/01/03 04:13:13;;;;;;;2.00;1.70;;;;;;;13.96;56.92;97112.59;7051902;28;20245;-83
2024/01/03 04:16:35;;;;;;;3.70;1.67;;;;;;;12.97;57.93;97070.50;7056155;28;20311;-83
2024/01/03 04:19:59;;;;;;;1.60;1.50;;;;;;;14.02;55.96;97119.66;7062832;28;20260;-83
2024/01/03 04:23:20;;;;;;;3.70;1.70;;;;;;;13.80;55.99;97121.78;7063882;28;20298;-83
2024/01/03 04:26:42;;;;;;;1.77;1.53;;;;;;;13.81;55.14;97137.75;7068121;27;20672;-83
2024/01/03 04:30:04;;;;;;;2.03;1.50;;;;;;;14.20;53.82;97144.41;7091985;27;20296;-83
2024/01/03 04:33:26;;;;;;;4.53;1.60;;;;;;;13.85;54.39;97140.75;7067296;27;20202;-84
2024/01/03 04:36:48;;;;;;;2.37;1.83;;;;;;;13.90;53.74;97129.94;7061545;28;20285;-83
2024/01/03 04:40:11;;;;;;;2.90;1.70;;;;;;;14.17;53.38;97141.41;7062926;28;20232;-83
2024/01/03 04:43:33;;;;;;;2.83;1.70;;;;;;;14.17;53.43;97133.25;7063149;28;20341;-83
2024/01/03 04:46:54;;;;;;;4.17;1.80;;;;;;;14.39;52.73;97121.13;7062682;28;20229;-83
2024/01/03 04:50:17;;;;;;;1.63;1.50;;;;;;;13.84;53.93;97145.38;7059743;28;20365;-83
2024/01/03 04:53:40;;;;;;;2.50;1.70;;;;;;;13.47;54.72;97106.78;7036198;28;20643;-83
2024/01/03 04:57:01;;;;;;;2.20;1.70;;;;;;;14.03;54.16;97151.09;7058268;28;20450;-83
2024/01/03 05:00:23;;;;;;;2.30;1.60;;;;;;;13.27;54.93;97065.28;7063527;28;20305;-83
2024/01/03 05:03:44;;;;;;;1.80;1.53;;;;;;;13.91;53.91;97145.09;7062606;28;20334;-83
2024/01/03 05:07:06;;;;;;;2.53;1.80;;;;;;;13.52;54.91;97123.00;7060581;28;20193;-84
2024/01/03 05:10:29;;;;;;;2.20;1.80;;;;;;;13.87;54.83;97139.41;7049221;28;20292;-83
2024/01/03 05:13:51;;;;;;;3.40;1.83;;;;;;;13.73;55.31;97159.13;7039902;28;20202;-83
2024/01/03 05:17:12;;;;;;;3.63;1.80;;;;;;;13.28;56.70;97150.78;7057384;28;20796;-83
2024/01/03 05:20:34;;;;;;;1.80;1.70;;;;;;;12.79;56.75;97079.00;7051037;28;20315;-83
2024/01/03 05:23:55;;;;;;;2.57;1.80;;;;;;;13.34;56.43;97163.28;7041038;28;20274;-83
2024/01/03 05:27:20;;;;;;;2.43;1.93;;;;;;;13.34;56.16;97160.56;7044743;27;20208;-83
2024/01/03 05:30:42;;;;;;;2.80;2.60;;;;;;;12.69;57.54;97176.31;7039955;28;20749;-84
2024/01/03 05:34:03;;;;;;;2.83;1.90;;;;;;;12.29;58.80;97154.31;7049506;28;20285;-83
2024/01/03 05:38:06;;;;;;;2.00;1.90;;;;;;;12.75;57.87;97169.88;7049040;28;20208;-83
2024/01/03 06:03:29;;;;;;;3.43;1.90;;;;;;;12.85;56.06;97191.56;6946947;28;20194;-84
2024/01/03 06:06:53;;;;;;;2.90;2.40;;;;;;;12.43;55.84;97133.88;6893298;28;20297;-83
2024/01/03 06:10:15;;;;;;;1.70;1.60;;;;;;;13.22;54.80;97195.94;6948142;28;20287;-83
2024/01/03 06:13:36;;;;;;;3.13;1.93;;;;;;;13.48;53.77;97205.88;6948238;28;20211;-83
2024/01/03 06:16:58;;;;;;;3.87;1.90;;;;;;;13.71;53.10;97210.88;6947227;28;20211;-83
2024/01/03 06:20:21;;;;;;;2.83;2.07;;;;;;;13.72;53.20;97211.66;6947718;28;20326;-84
2024/01/03 06:23:42;;;;;;;3.67;2.30;;;;;;;13.36;54.19;97188.19;6948362;28;20276;-83
2024/01/03 06:27:04;;;;;;;2.23;2.03;;;;;;;13.47;54.42;97198.00;6946687;28;20408;-84
2024/01/03 06:30:26;;;;;;;3.40;2.20;;;;;;;13.26;55.36;97218.69;6946190;28;20361;-84
2024/01/03 06:33:47;;;;;;;5.13;2.10;;;;;;;13.38;55.04;97215.78;6966940;28;20252;-84
2024/01/03 06:37:10;;;;;;;4.13;2.03;;;;;;;13.57;54.94;97208.88;7046859;28;20249;-83
2024/01/03 06:40:32;;;;;;;2.77;2.10;;;;;;;13.33;55.60;97215.78;7062164;28;20265;-84
2024/01/03 06:43:53;;;;;;;2.43;2.10;;;;;;;12.89;54.88;97095.31;7066136;28;20204;-84
2024/01/03 06:47:15;;;;;;;3.90;2.00;;;;;;;13.14;55.88;97172.06;7064968;28;20204;-83
2024/01/03 06:50:36;;;;;;;2.77;1.90;;;;;;;13.42;55.71;97206.09;7066156;28;20265;-83
2024/01/03 06:53:59;;;;;;;2.17;2.07;;;;;;;13.37;55.92;97208.75;7062761;28;20545;-83
2024/01/03 06:57:20;;;;;;;2.57;2.10;;;;;;;13.20;55.96;97184.56;7045988;28;20703;-84
2024/01/03 07:00:42;;;;;;;2.93;2.30;;;;;;;13.21;56.38;97202.44;7058935;28;20295;-86
2024/01/03 07:04:04;;;;;;;2.27;2.10;;;;;;;12.85;56.19;97141.00;7039395;28;20670;-83
2024/01/03 07:07:28;;;;;;;2.30;2.10;;;;;;;13.28;55.97;97202.22;7035401;28;20223;-83
2024/01/03 07:10:53;;;;;;;2.60;2.00;;;;;;;13.11;56.45;97199.63;7037222;28;20204;-83
2024/01/03 07:14:27;;;;;;;3.97;2.10;;;;;;;12.82;56.55;97155.06;7039406;28;20201;-83
2024/01/03 07:18:08;;;;;;;2.53;2.10;;;;;;;13.05;55.82;97156.59;7050672;28;20611;-84
2024/01/03 07:21:30;;;;;;;3.13;2.30;;;;;;;13.28;56.22;97196.81;7062142;28;20566;-83
2024/01/03 07:24:51;;;;;;;4.40;2.40;;;;;;;12.97;57.19;97203.88;7056420;28;20239;-83
2024/01/03 07:28:14;;;;;;;3.53;2.40;;;;;;;13.18;56.46;97207.53;7058880;28;20259;-83
2024/01/03 07:31:36;;;;;;;2.33;2.13;;;;;;;13.40;55.80;97219.06;7044850;28;20245;-82
2024/01/03 07:34:57;;;;;;;2.40;2.20;;;;;;;13.17;55.95;97204.00;7042237;28;20256;-82
2024/01/03 07:38:19;;;;;;;2.40;2.03;;;;;;;13.37;55.83;97208.75;7046964;28;20240;-82
2024/01/03 07:41:40;;;;;;;3.47;2.47;;;;;;;13.35;55.78;97213.63;7066956;28;20232;-81
2024/01/03 07:45:04;;;;;;;7.10;3.60;;;;;;;13.43;55.77;97218.53;7051116;28;20237;-80
2024/01/03 07:48:25;;;;;;;2.30;2.03;;;;;;;13.41;55.37;97215.28;7063856;28;20585;-89
2024/01/03 07:51:49;;;;;;;2.43;2.23;;;;;;;13.92;54.28;97199.03;7061960;28;20200;-86
2024/01/03 07:55:10;;;;;;;3.23;2.00;;;;;;;14.24;53.40;97194.31;7063158;28;20211;-85
2024/01/03 07:58:32;;;;;;;2.87;2.00;;;;;;;14.37;52.85;97209.22;7060714;27;20239;-85
2024/01/03 08:01:55;;;;;;;3.27;1.90;;;;;;;14.36;53.28;97203.00;7071637;27;20611;-86
2024/01/03 08:05:17;;;;;;;2.03;1.80;;;;;;;14.62;52.50;97218.22;7061351;28;20200;-87
2024/01/03 08:08:38;;;;;;;2.50;2.30;;;;;;;14.40;53.51;97216.84;7080397;28;20292;-86
2024/01/03 08:12:00;;;;;;;3.43;2.33;;;;;;;14.38;53.64;97205.44;7068492;28;20212;-84
2024/01/03 08:15:22;;;;;;;2.63;2.10;;;;;;;14.68;52.72;97213.66;7054257;28;20571;-83
2024/01/03 08:18:46;;;;;;;3.17;2.30;;;;;;;14.43;53.44;97208.97;7051223;28;20228;-84
2024/01/03 08:22:08;;;;;;;5.33;2.10;;;;;;;14.28;53.42;97195.38;7062732;28;20813;-83
2024/01/03 08:25:29;;;;;;;2.47;2.03;;;;;;;14.27;53.35;97204.59;7046162;28;20256;-84
2024/01/03 08:28:51;;;;;;;2.10;1.90;;;;;;;14.45;52.90;97198.69;7056425;27;20253;-82
2024/01/03 08:32:12;;;;;;;3.73;2.27;;;;;;;14.08;52.72;97118.59;7058823;28;20222;-85
2024/01/03 08:35:35;;;;;;;4.03;2.03;;;;;;;14.65;52.83;97178.91;7045638;28;20601;-83
2024/01/03 08:38:56;;;;;;;3.33;2.10;;;;;;;14.69;52.47;97178.09;7050051;28;20760;-87
2024/01/03 08:42:18;;;;;;;3.37;1.67;;;;;;;14.23;53.35;97181.00;7042413;28;20229;-83
2024/01/03 08:45:39;;;;;;;3.83;2.07;;;;;;;14.42;53.11;97187.56;7056290;28;20673;-84
2024/01/03 08:49:03;;;;;;;3.13;1.97;;;;;;;14.33;53.47;97189.97;7062066;28;20221;-84
2024/01/03 08:52:27;;;;;;;3.17;1.80;;;;;;;14.54;53.07;97182.69;7060913;28;20201;-84
2024/01/03 08:55:49;;;;;;;3.93;1.90;;;;;;;14.61;52.41;97170.50;7055737;28;20206;-87
2024/01/03 08:59:10;;;;;;;1.80;1.67;;;;;;;14.83;52.78;97181.91;7062912;27;20226;-84
2024/01/03 09:02:32;;;;;;;2.73;2.00;;;;;;;14.08;54.61;97176.34;7050582;28;20228;-85
2024/01/03 09:05:58;;;;;;;2.03;1.53;;;;;;;14.41;53.73;97196.78;7039453;27;20239;-85
2024/01/03 09:09:21;;;;;;;2.80;1.70;;;;;;;14.87;53.48;97201.19;7031608;28;20213;-84
2024/01/03 09:12:42;;;;;;;3.10;2.00;;;;;;;15.00;52.85;97208.78;7059726;28;20686;-85
2024/01/03 09:16:04;;;;;;;2.57;1.60;;;;;;;15.00;52.85;97197.91;7058981;28;20198;-85
2024/01/03 09:19:26;;;;;;;3.23;1.87;;;;;;;15.05;52.48;97200.63;7052772;28;20311;-84
2024/01/03 09:22:47;;;;;;;3.77;1.57;;;;;;;14.14;53.66;97188.81;7046393;28;20209;-84
2024/01/03 09:26:11;;;;;;;3.70;1.93;;;;;;;14.47;52.87;97190.28;7058252;28;20200;-84
2024/01/03 09:29:33;;;;;;;3.70;1.87;;;;;;;14.02;54.27;97199.06;7043296;28;20214;-85
2024/01/03 09:32:54;;;;;;;1.93;1.83;;;;;;;14.30;53.18;97193.22;7037436;28;20240;-85
2024/01/03 09:36:19;;;;;;;2.27;2.07;;;;;;;14.69;52.23;97229.63;7056290;28;20204;-83
2024/01/03 09:39:41;;;;;;;2.70;1.67;;;;;;;14.25;52.63;97173.41;7057293;27;20228;-83
2024/01/03 09:43:04;;;;;;;2.00;1.77;;;;;;;14.63;52.52;97221.78;7057547;28;20282;-83
2024/01/03 09:46:26;;;;;;;1.90;1.80;;;;;;;14.41;53.54;97216.59;7057441;28;20295;-82
2024/01/03 09:49:47;;;;;;;1.83;1.73;;;;;;;14.85;52.75;97208.75;7036588;27;20357;-83
2024/01/03 09:53:09;;;;;;;1.60;1.50;;;;;;;14.59;52.59;97220.66;7028723;28;20685;-83
2024/01/03 09:56:31;;;;;;;1.60;1.50;;;;;;;14.69;52.70;97221.50;7030699;28;20739;-82
2024/01/03 09:59:55;;;;;;;1.77;1.60;;;;;;;14.41;53.19;97216.59;7029071;28;20315;-85
2024/01/03 10:03:18;;;;;;;2.30;1.70;;;;;;;14.89;51.83;97221.53;7027479;28;20202;-85
2024/01/03 10:06:52;;;;;;;2.13;1.63;;;;;;;14.58;52.84;97219.84;7027322;28;20282;-85
2024/01/03 10:10:14;;;;;;;1.77;1.47;;;;;;;14.62;53.27;97193.81;7028228;28;20218;-83
2024/01/03 10:13:38;;;;;;;3.07;1.60;;;;;;;14.92;52.64;97203.91;7029716;28;20229;-83
2024/01/03 10:17:09;;;;;;;3.00;1.73;;;;;;;15.13;51.54;97216.38;7029538;28;20246;-82
2024/01/03 10:20:30;;;;;;;2.70;1.50;;;;;;;14.60;53.13;97227.72;7029820;28;20293;-85
2024/01/03 10:24:01;;;;;;;2.03;1.67;;;;;;;14.75;53.08;97204.13;7030862;28;20199;-83
2024/01/03 10:27:22;;;;;;;2.53;1.60;;;;;;;14.65;53.92;97228.56;7029525;28;20323;-83
2024/01/03 10:30:44;;;;;;;2.40;1.90;;;;;;;14.10;54.64;97195.03;7031045;28;20312;-83
2024/01/03 10:34:12;;;;;;;3.93;2.00;;;;;;;14.87;53.39;97218.25;7044179;28;20201;-82
2024/01/03 10:37:33;;;;;;;2.20;1.63;;;;;;;14.59;53.98;97207.13;7029937;28;20202;-83
2024/01/03 10:40:55;;;;;;;4.23;3.10;;;;;;;14.50;53.82;97216.84;7036213;28;20772;-83
2024/01/03 10:44:18;;;;;;;3.77;1.93;;;;;;;15.01;53.32;97218.53;7031800;28;20287;-85
2024/01/03 10:47:39;;;;;;;4.27;1.90;;;;;;;14.56;53.53;97227.44;7031677;28;20688;-83
2024/01/03 10:51:03;;;;;;;4.27;1.90;;;;;;;14.85;52.32;97211.47;7041040;28;20246;-83
2024/01/03 10:54:26;;;;;;;3.20;1.90;;;;;;;15.26;51.64;97202.22;7029818;28;20246;-84
2024/01/03 10:57:57;;;;;;;3.23;2.00;;;;;;;15.05;52.29;97206.06;7025906;28;20221;-83
2024/01/03 11:01:22;;;;;;;1.77;1.50;;;;;;;15.22;51.45;97223.69;7026846;28;20214;-85
2024/01/03 11:04:48;;;;;;;3.13;1.93;;;;;;;14.87;51.44;97228.31;7044333;28;20244;-84
2024/01/03 11:08:13;;;;;;;2.00;1.57;;;;;;;14.30;53.31;97217.63;7052874;28;20264;-84
2024/01/03 11:11:36;;;;;;;3.03;1.50;;;;;;;14.95;51.69;97233.19;7038976;28;20340;-86
2024/01/03 11:15:22;;;;;;;2.80;1.80;;;;;;;15.49;50.52;97226.97;7054168;28;20207;-81
2024/01/03 11:18:53;;;;;;;3.50;2.20;;;;;;;15.84;49.85;97239.63;7027080;28;20320;-82
2024/01/03 11:22:14;;;;;;;2.77;1.70;;;;;;;15.43;50.61;97230.78;7030401;28;20207;-84
2024/01/03 11:25:52;;;;;;;3.63;1.60;;;;;;;15.28;50.71;97243.53;7043883;28;20202;-83
2024/01/03 11:29:42;;;;;;;2.87;1.80;;;;;;;15.29;50.69;97239.72;7028129;28;20227;-83
2024/01/03 11:33:24;;;;;;;2.60;1.70;;;;;;;15.42;50.22;97244.63;7049594;28;20207;-84
2024/01/03 11:36:47;;;;;;;1.60;1.30;;;;;;;15.18;50.91;97249.78;7035770;28;20204;-85
2024/01/03 11:40:19;;;;;;;2.53;1.53;;;;;;;15.38;50.61;97236.19;7037874;28;20237;-85
2024/01/03 11:43:41;;;;;;;1.70;1.60;;;;;;;15.84;49.52;97223.34;7042579;28;20396;-85
2024/01/03 11:47:04;;;;;;;2.43;1.53;;;;;;;15.56;48.54;97208.47;7049481;28;20259;-84
2024/01/03 11:50:31;;;;;;;1.63;1.40;;;;;;;15.16;50.13;97227.50;7051393;28;20775;-85
2024/01/03 11:53:53;;;;;;;1.90;1.80;;;;;;;15.13;49.68;97195.47;7051455;28;20220;-84
2024/01/03 11:57:15;;;;;;;2.03;1.63;;;;;;;15.53;48.85;97211.75;7048705;28;20201;-83
2024/01/03 12:00:38;;;;;;;2.73;1.63;;;;;;;15.46;49.03;97210.41;7039701;28;20312;-84
2024/01/03 12:04:10;;;;;;;2.77;1.80;;;;;;;15.45;48.73;97185.13;7050173;28;20594;-84
2024/01/03 12:07:33;;;;;;;2.10;1.60;;;;;;;15.94;48.05;97194.22;7039882;28;20696;-84
2024/01/03 12:10:55;;;;;;;2.20;1.63;;;;;;;15.62;49.07;97201.94;7028983;28;20246;-85
2024/01/03 12:14:17;;;;;;;2.40;1.33;;;;;;;15.60;48.89;97192.44;7040688;28;20203;-84
2024/01/03 12:17:39;;;;;;;1.97;1.73;;;;;;;15.47;49.02;97171.28;7030436;28;20339;-85
2024/01/03 12:21:10;;;;;;;1.67;1.50;;;;;;;16.24;47.74;97187.84;7038437;28;20254;-85
2024/01/03 12:24:39;;;;;;;1.67;1.30;;;;;;;16.24;48.16;97185.13;7042479;28;20278;-85
2024/01/03 12:28:01;;;;;;;3.17;1.90;;;;;;;16.01;48.66;97181.16;7036382;28;20325;-85
2024/01/03 12:31:24;;;;;;;1.70;1.60;;;;;;;15.33;49.95;97211.75;7045737;28;20229;-84
2024/01/03 12:34:48;;;;;;;4.67;2.40;;;;;;;15.37;49.99;97193.84;7041668;27;20244;-83
2024/01/03 12:38:10;;;;;;;3.83;1.83;;;;;;;15.64;48.76;97191.59;7042875;28;20300;-83
2024/01/03 12:41:31;;;;;;;1.73;1.63;;;;;;;14.83;50.85;97178.38;7054852;28;20272;-86
2024/01/03 12:44:53;;;;;;;1.70;1.57;;;;;;;15.30;49.23;97189.75;7049181;28;20226;-83
2024/01/03 12:48:15;;;;;;;1.50;1.40;;;;;;;14.93;49.45;97165.63;7040277;28;20222;-85
2024/01/03 12:51:38;;;;;;;2.13;1.53;;;;;;;15.52;48.54;97157.69;7048978;27;20197;-84
2024/01/03 12:54:59;;;;;;;1.40;1.30;;;;;;;15.38;49.22;97165.59;7049742;28;20231;-85
2024/01/03 12:58:23;;;;;;;2.37;1.53;;;;;;;15.35;49.50;97144.44;7045039;28;20286;-85
2024/01/03 13:01:44;;;;;;;1.50;1.40;;;;;;;15.95;47.95;97143.38;7053534;27;20284;-84
2024/01/03 13:05:06;;;;;;;2.00;1.80;;;;;;;15.78;48.84;97135.59;7050249;28;20199;-85
2024/01/03 13:08:29;;;;;;;1.50;1.20;;;;;;;16.14;47.67;97115.28;7050941;28;20262;-84
2024/01/03 13:11:51;;;;;;;3.83;1.67;;;;;;;15.81;48.24;97123.34;7055996;28;20199;-84
2024/01/03 13:15:13;;;;;;;1.63;1.53;;;;;;;15.77;48.60;97127.72;7040164;28;20207;-83
2024/01/03 13:18:36;;;;;;;1.53;1.40;;;;;;;16.15;48.26;97125.06;7061222;27;20287;-82
2024/01/03 13:21:58;;;;;;;1.60;1.30;;;;;;;16.08;47.87;97102.00;7061993;28;20225;-84
2024/01/03 13:25:21;;;;;;;2.87;1.57;;;;;;;16.01;48.01;97107.75;7055652;28;20207;-83
2024/01/03 13:28:43;;;;;;;2.93;1.50;;;;;;;15.40;48.59;97114.53;7043294;28;20229;-83
2024/01/03 13:32:05;;;;;;;2.87;1.57;;;;;;;16.33;47.06;97104.56;7050581;28;20669;-80
2024/01/03 13:35:27;;;;;;;1.93;1.67;;;;;;;16.16;47.27;97123.16;7033439;28;20263;-83
2024/01/03 13:38:48;;;;;;;2.93;1.60;;;;;;;16.05;47.34;97121.59;7058706;28;20226;-82
2024/01/03 13:42:11;;;;;;;2.90;1.67;;;;;;;15.81;47.84;97132.31;7042715;28;20270;-83
2024/01/03 13:45:33;;;;;;;4.10;1.70;;;;;;;15.71;48.49;97117.94;7037746;28;20249;-83
2024/01/03 13:48:55;;;;;;;3.13;1.90;;;;;;;15.64;47.86;97104.66;7047154;28;20222;-83
2024/01/03 13:52:18;;;;;;;3.77;2.03;;;;;;;15.10;48.84;97128.16;7043085;27;20251;-83
2024/01/03 13:55:40;;;;;;;2.43;1.80;;;;;;;15.20;49.18;97151.75;7032440;28;20276;-85
2024/01/03 13:59:03;;;;;;;2.03;1.60;;;;;;;15.03;49.75;97143.91;7046578;28;20295;-83
2024/01/03 14:02:24;;;;;;;2.93;1.73;;;;;;;14.79;52.66;97118.41;7062633;28;20224;-84
2024/01/03 14:05:46;;;;;;;1.93;1.50;;;;;;;14.82;52.56;97141.47;7054098;27;20255;-83
2024/01/03 14:09:07;;;;;;;2.33;1.60;;;;;;;14.77;53.01;97130.63;7041155;28;20305;-83
2024/01/03 14:12:29;;;;;;;1.63;1.50;;;;;;;15.06;53.18;97124.38;7051962;28;20249;-83
2024/01/03 14:15:52;;;;;;;3.97;1.77;;;;;;;14.99;53.03;97123.03;7042163;28;20229;-84
2024/01/03 14:19:14;;;;;;;2.10;1.90;;;;;;;14.89;53.77;97128.44;7064297;28;20262;-86
2024/01/03 14:22:35;;;;;;;2.97;1.87;;;;;;;14.63;53.25;97095.09;7069775;28;20225;-84
2024/01/03 14:26:03;;;;;;;4.37;2.00;;;;;;;14.31;53.90;97063.91;7077926;28;20207;-83
2024/01/03 14:29:25;;;;;;;1.83;1.63;;;;;;;14.68;54.07;97113.28;7063827;28;20290;-83
2024/01/03 14:32:48;;;;;;;3.83;2.00;;;;;;;14.96;53.88;97126.25;7059537;28;20207;-84
2024/01/03 14:36:13;;;;;;;2.23;1.93;;;;;;;14.97;53.87;97119.75;7045284;28;20202;-84
2024/01/03 14:39:36;;;;;;;3.37;1.90;;;;;;;15.05;54.35;97103.72;7046792;27;20230;-83
2024/01/03 14:43:09;;;;;;;4.47;2.83;;;;;;;14.67;54.55;97108.91;7057134;28;20223;-81
2024/01/03 14:46:33;;;;;;;3.13;2.30;;;;;;;15.05;53.97;97117.28;7049686;28;20341;-82
2024/01/03 14:49:56;;;;;;;1.93;1.53;;;;;;;14.56;54.18;97104.56;7045206;27;20311;-82
2024/01/03 14:53:18;;;;;;;4.43;2.10;;;;;;;14.47;55.26;97112.47;7056639;28;20195;-83
2024/01/03 14:56:40;;;;;;;5.63;2.00;;;;;;;14.74;55.11;97091.28;7042356;28;20603;-80
2024/01/03 15:00:02;;;;;;;2.40;1.73;;;;;;;15.14;53.51;97091.22;7053053;28;20217;-82
2024/01/03 15:03:23;;;;;;;2.33;1.70;;;;;;;14.98;52.88;97064.41;7055299;28;20252;-82
2024/01/03 15:06:55;;;;;;;1.97;1.80;;;;;;;14.77;53.72;97093.47;7050950;28;20201;-82
2024/01/03 15:10:16;;;;;;;2.97;1.83;;;;;;;14.80;53.23;97078.56;7066622;28;20230;-82
2024/01/03 15:13:39;;;;;;;1.73;1.60;;;;;;;14.82;53.26;97087.22;7049778;28;20243;-82
2024/01/03 15:17:01;;;;;;;1.87;1.50;;;;;;;14.73;52.99;97081.53;7060729;28;20194;-83
2024/01/03 15:20:22;;;;;;;2.83;1.63;;;;;;;14.27;53.50;96997.78;7065546;28;20243;-83
2024/01/03 15:23:45;;;;;;;5.33;1.93;;;;;;;14.74;53.33;97072.31;7059405;28;20213;-82
2024/01/03 15:27:07;;;;;;;2.03;1.87;;;;;;;14.46;53.56;97066.63;7075000;28;20201;-83
2024/01/03 15:30:29;;;;;;;1.80;1.63;;;;;;;13.88;53.50;96980.41;7076392;28;20243;-83
2024/01/03 15:33:51;;;;;;;2.93;1.63;;;;;;;14.11;54.17;97053.03;7077040;28;20205;-83
2024/01/03 15:37:12;;;;;;;2.20;1.73;;;;;;;14.59;53.40;97072.34;7073166;28;20236;-83
2024/01/03 15:40:35;;;;;;;1.70;1.60;;;;;;;14.35;53.28;97056.88;7070142;28;20254;-83
2024/01/03 15:43:57;;;;;;;4.60;2.33;;;;;;;14.62;52.35;97046.56;7066634;28;20208;-83
2024/01/03 15:47:18;;;;;;;2.37;1.83;;;;;;;14.37;52.58;97049.28;7071388;28;20282;-83
2024/01/03 15:50:40;;;;;;;4.77;1.67;;;;;;;14.42;52.07;97052.00;7074253;28;20255;-83
2024/01/03 15:54:01;;;;;;;4.20;1.80;;;;;;;14.62;51.67;97046.56;7073417;28;20206;-83
2024/01/03 15:57:24;;;;;;;1.90;1.80;;;;;;;14.30;51.57;97038.72;7074346;28;20212;-83
2024/01/03 16:00:46;;;;;;;2.50;1.80;;;;;;;14.52;51.41;97020.25;7077606;28;20670;-83
2024/01/03 16:04:08;;;;;;;2.80;1.87;;;;;;;14.73;50.64;97011.00;7075910;28;20205;-82
2024/01/03 16:07:29;;;;;;;1.73;1.63;;;;;;;14.76;50.72;96987.94;7080592;28;20205;-83
2024/01/03 16:10:51;;;;;;;3.50;2.20;;;;;;;14.77;50.93;97003.13;7081583;27;20267;-83
2024/01/03 16:14:14;;;;;;;3.57;1.87;;;;;;;15.02;50.52;97000.34;7081862;28;20235;-83
2024/01/03 16:17:36;;;;;;;2.20;1.77;;;;;;;15.22;49.83;97005.69;7075509;27;20216;-83
2024/01/03 16:20:57;;;;;;;1.70;1.60;;;;;;;14.16;52.37;96991.50;7073824;28;20224;-83